sensor_id;sensor_type;location;lat;lon;timestamp;temperature;humidity
4453;DHT22;2239;48.152;11.584;2024-03-08T00:01:30;1.60;99.90
4453;DHT22;2239;48.152;11.584;2024-03-08T00:03:56;1.60;99.90
4453;DHT22;2239;48.152;11.584;2024-03-08T00:06:22;1.60;99.90
4453;DHT22;2239;48.152;11.584;2024-03-08T00:08:48;1.60;99.90
4453;DHT22;2239;48.152;11.584;2024-03-08T00:11:13;1.50;99.90
4453;DHT22;2239;48.152;11.584;2024-03-08T00:13:39;1.50;99.90
4453;DHT22;2239;48.152;11.584;2024-03-08T00:16:05;1.50;99.90
4453;DHT22;2239;48.152;11.584;2024-03-08T00:18:30;1.50;99.90
4453;DHT22;2239;48.152;11.584;2024-03-08T00:20:56;1.60;99.90
4453;DHT22;2239;48.152;11.584;2024-03-08T00:23:22;1.60;99.90
4453;DHT22;2239;48.152;11.584;2024-03-08T00:25:48;1.50;99.90
4453;DHT22;2239;48.152;11.584;2024-03-08T00:28:14;1.50;99.90
4453;DHT22;2239;48.152;11.584;2024-03-08T00:30:42;1.50;99.90
4453;DHT22;2239;48.152;11.584;2024-03-08T00:33:08;1.50;99.90
4453;DHT22;2239;48.152;11.584;2024-03-08T00:35:34;1.40;99.90
4453;DHT22;2239;48.152;11.584;2024-03-08T00:37:59;1.40;99.90
4453;DHT22;2239;48.152;11.584;2024-03-08T00:40:25;1.40;99.90
4453;DHT22;2239;48.152;11.584;2024-03-08T00:42:50;1.40;99.90
4453;DHT22;2239;48.152;11.584;2024-03-08T00:45:18;1.30;99.90
4453;DHT22;2239;48.152;11.584;2024-03-08T00:47:44;1.30;99.90
4453;DHT22;2239;48.152;11.584;2024-03-08T00:50:10;1.30;99.90
4453;DHT22;2239;48.152;11.584;2024-03-08T00:52:36;1.30;99.90
4453;DHT22;2239;48.152;11.584;2024-03-08T00:55:02;1.30;99.90
4453;DHT22;2239;48.152;11.584;2024-03-08T00:57:28;1.30;99.90
4453;DHT22;2239;48.152;11.584;2024-03-08T00:59:54;1.30;99.90
4453;DHT22;2239;48.152;11.584;2024-03-08T01:02:20;1.30;99.90
4453;DHT22;2239;48.152;11.584;2024-03-08T01:04:46;1.40;99.90
4453;DHT22;2239;48.152;11.584;2024-03-08T01:07:12;1.30;99.90
4453;DHT22;2239;48.152;11.584;2024-03-08T01:09:38;1.20;99.90
4453;DHT22;2239;48.152;11.584;2024-03-08T01:12:04;1.20;99.90
4453;DHT22;2239;48.152;11.584;2024-03-08T01:14:32;1.20;99.90
4453;DHT22;2239;48.152;11.584;2024-03-08T01:16:58;1.10;99.90
4453;DHT22;2239;48.152;11.584;2024-03-08T01:19:24;1.20;99.90
4453;DHT22;2239;48.152;11.584;2024-03-08T01:21:50;1.20;99.90
4453;DHT22;2239;48.152;11.584;2024-03-08T01:24:16;1.20;99.90
4453;DHT22;2239;48.152;11.584;2024-03-08T01:26:42;1.20;99.90
4453;DHT22;2239;48.152;11.584;2024-03-08T01:29:08;1.20;99.90
4453;DHT22;2239;48.152;11.584;2024-03-08T01:31:33;1.20;99.90
4453;DHT22;2239;48.152;11.584;2024-03-08T01:33:59;1.20;99.90
4453;DHT22;2239;48.152;11.584;2024-03-08T01:36:25;1.20;99.90
4453;DHT22;2239;48.152;11.584;2024-03-08T01:38:51;1.10;99.90
4453;DHT22;2239;48.152;11.584;2024-03-08T01:41:17;1.00;99.90
4453;DHT22;2239;48.152;11.584;2024-03-08T01:43:44;1.00;99.90
4453;DHT22;2239;48.152;11.584;2024-03-08T01:46:12;1.00;99.90
4453;DHT22;2239;48.152;11.584;2024-03-08T01:48:40;0.90;99.90
4453;DHT22;2239;48.152;11.584;2024-03-08T01:51:07;0.80;99.90
4453;DHT22;2239;48.152;11.584;2024-03-08T01:53:34;0.90;99.90
4453;DHT22;2239;48.152;11.584;2024-03-08T01:56:00;0.80;99.90
4453;DHT22;2239;48.152;11.584;2024-03-08T01:58:29;0.90;99.90
4453;DHT22;2239;48.152;11.584;2024-03-08T02:00:56;0.90;99.90
4453;DHT22;2239;48.152;11.584;2024-03-08T02:03:23;0.90;99.90
4453;DHT22;2239;48.152;11.584;2024-03-08T02:05:49;0.90;99.90
4453;DHT22;2239;48.152;11.584;2024-03-08T02:08:15;0.90;99.90
4453;DHT22;2239;48.152;11.584;2024-03-08T02:10:43;0.90;99.90
4453;DHT22;2239;48.152;11.584;2024-03-08T02:13:09;0.90;99.90
4453;DHT22;2239;48.152;11.584;2024-03-08T02:15:54;1.00;99.90
4453;DHT22;2239;48.152;11.584;2024-03-08T02:18:21;0.90;99.90
4453;DHT22;2239;48.152;11.584;2024-03-08T02:20:51;0.90;99.90
4453;DHT22;2239;48.152;11.584;2024-03-08T02:23:21;0.90;99.90
4453;DHT22;2239;48.152;11.584;2024-03-08T02:25:47;0.90;99.90
4453;DHT22;2239;48.152;11.584;2024-03-08T02:28:13;0.80;99.90
4453;DHT22;2239;48.152;11.584;2024-03-08T02:30:40;0.80;99.90
4453;DHT22;2239;48.152;11.584;2024-03-08T02:33:06;0.80;99.90
4453;DHT22;2239;48.152;11.584;2024-03-08T02:35:35;0.80;99.90
4453;DHT22;2239;48.152;11.584;2024-03-08T02:38:02;0.80;99.90
4453;DHT22;2239;48.152;11.584;2024-03-08T02:40:29;0.70;99.90
4453;DHT22;2239;48.152;11.584;2024-03-08T02:42:55;0.70;99.90
4453;DHT22;2239;48.152;11.584;2024-03-08T02:45:21;0.70;99.90
4453;DHT22;2239;48.152;11.584;2024-03-08T02:47:47;0.70;99.90
4453;DHT22;2239;48.152;11.584;2024-03-08T02:50:15;0.70;99.90
4453;DHT22;2239;48.152;11.584;2024-03-08T02:52:42;0.70;99.90
4453;DHT22;2239;48.152;11.584;2024-03-08T02:55:08;0.70;99.90
4453;DHT22;2239;48.152;11.584;2024-03-08T02:57:36;0.60;99.90
4453;DHT22;2239;48.152;11.584;2024-03-08T03:00:02;0.60;99.90
4453;DHT22;2239;48.152;11.584;2024-03-08T03:02:29;0.60;99.90
4453;DHT22;2239;48.152;11.584;2024-03-08T03:04:55;0.60;99.90
4453;DHT22;2239;48.152;11.584;2024-03-08T03:07:21;0.60;99.90
4453;DHT22;2239;48.152;11.584;2024-03-08T03:09:47;0.60;99.90
4453;DHT22;2239;48.152;11.584;2024-03-08T03:12:13;0.60;99.90
4453;DHT22;2239;48.152;11.584;2024-03-08T03:14:39;0.50;99.90
4453;DHT22;2239;48.152;11.584;2024-03-08T03:17:05;0.50;99.90
4453;DHT22;2239;48.152;11.584;2024-03-08T03:19:31;0.50;99.90
4453;DHT22;2239;48.152;11.584;2024-03-08T03:21:56;0.50;99.90
4453;DHT22;2239;48.152;11.584;2024-03-08T03:24:22;0.50;99.90
4453;DHT22;2239;48.152;11.584;2024-03-08T03:26:49;0.40;99.90
4453;DHT22;2239;48.152;11.584;2024-03-08T03:29:15;0.40;99.90
4453;DHT22;2239;48.152;11.584;2024-03-08T03:31:42;0.50;99.90
4453;DHT22;2239;48.152;11.584;2024-03-08T03:34:12;0.40;99.90
4453;DHT22;2239;48.152;11.584;2024-03-08T03:36:38;0.50;99.90
4453;DHT22;2239;48.152;11.584;2024-03-08T03:39:11;0.50;99.90
4453;DHT22;2239;48.152;11.584;2024-03-08T03:41:38;0.50;99.90
4453;DHT22;2239;48.152;11.584;2024-03-08T03:44:05;0.50;99.90
4453;DHT22;2239;48.152;11.584;2024-03-08T03:46:32;0.40;99.90
4453;DHT22;2239;48.152;11.584;2024-03-08T03:48:58;0.50;99.90
4453;DHT22;2239;48.152;11.584;2024-03-08T03:51:24;0.40;99.90
4453;DHT22;2239;48.152;11.584;2024-03-08T03:53:51;0.40;99.90
4453;DHT22;2239;48.152;11.584;2024-03-08T03:56:16;0.40;99.90
4453;DHT22;2239;48.152;11.584;2024-03-08T03:58:42;0.40;99.90
4453;DHT22;2239;48.152;11.584;2024-03-08T04:01:08;0.40;99.90
4453;DHT22;2239;48.152;11.584;2024-03-08T04:03:35;0.40;99.90
4453;DHT22;2239;48.152;11.584;2024-03-08T04:06:01;0.40;99.90
4453;DHT22;2239;48.152;11.584;2024-03-08T04:08:27;0.30;99.90
4453;DHT22;2239;48.152;11.584;2024-03-08T04:10:53;0.30;99.90
4453;DHT22;2239;48.152;11.584;2024-03-08T04:13:19;0.30;99.90
4453;DHT22;2239;48.152;11.584;2024-03-08T04:15:46;0.30;99.90
4453;DHT22;2239;48.152;11.584;2024-03-08T04:18:14;0.30;99.90
4453;DHT22;2239;48.152;11.584;2024-03-08T04:20:39;0.30;99.90
4453;DHT22;2239;48.152;11.584;2024-03-08T04:23:06;0.30;99.90
4453;DHT22;2239;48.152;11.584;2024-03-08T04:25:32;0.30;99.90
4453;DHT22;2239;48.152;11.584;2024-03-08T04:27:57;0.30;99.90
4453;DHT22;2239;48.152;11.584;2024-03-08T04:30:23;0.30;99.90
4453;DHT22;2239;48.152;11.584;2024-03-08T04:32:49;0.30;99.90
4453;DHT22;2239;48.152;11.584;2024-03-08T04:35:16;0.20;99.90
4453;DHT22;2239;48.152;11.584;2024-03-08T04:37:42;0.30;99.90
4453;DHT22;2239;48.152;11.584;2024-03-08T04:40:07;0.30;99.90
4453;DHT22;2239;48.152;11.584;2024-03-08T04:42:33;0.20;99.90
4453;DHT22;2239;48.152;11.584;2024-03-08T04:45:01;0.20;99.90
4453;DHT22;2239;48.152;11.584;2024-03-08T04:47:26;0.20;99.90
4453;DHT22;2239;48.152;11.584;2024-03-08T04:49:52;0.20;99.90
4453;DHT22;2239;48.152;11.584;2024-03-08T04:52:18;0.10;99.90
4453;DHT22;2239;48.152;11.584;2024-03-08T04:54:44;0.10;99.90
4453;DHT22;2239;48.152;11.584;2024-03-08T04:57:12;0.20;99.90
4453;DHT22;2239;48.152;11.584;2024-03-08T04:59:38;0.10;99.90
4453;DHT22;2239;48.152;11.584;2024-03-08T05:02:04;0.10;99.90
4453;DHT22;2239;48.152;11.584;2024-03-08T05:04:30;0.10;99.90
4453;DHT22;2239;48.152;11.584;2024-03-08T05:06:55;0.10;99.90
4453;DHT22;2239;48.152;11.584;2024-03-08T05:09:21;0.10;99.90
4453;DHT22;2239;48.152;11.584;2024-03-08T05:11:48;0.10;99.90
4453;DHT22;2239;48.152;11.584;2024-03-08T05:14:14;0.10;99.90
4453;DHT22;2239;48.152;11.584;2024-03-08T05:16:48;0.10;99.90
4453;DHT22;2239;48.152;11.584;2024-03-08T05:19:15;0.10;99.90
4453;DHT22;2239;48.152;11.584;2024-03-08T05:21:49;0.10;99.90
4453;DHT22;2239;48.152;11.584;2024-03-08T05:24:15;0.10;99.90
4453;DHT22;2239;48.152;11.584;2024-03-08T05:26:42;0.20;99.90
4453;DHT22;2239;48.152;11.584;2024-03-08T05:29:08;0.20;99.90
4453;DHT22;2239;48.152;11.584;2024-03-08T05:31:56;0.10;99.90
4453;DHT22;2239;48.152;11.584;2024-03-08T05:34:23;0.20;99.90
4453;DHT22;2239;48.152;11.584;2024-03-08T05:36:50;0.20;99.90
4453;DHT22;2239;48.152;11.584;2024-03-08T05:39:17;0.10;99.90
4453;DHT22;2239;48.152;11.584;2024-03-08T05:41:43;0.10;99.90
4453;DHT22;2239;48.152;11.584;2024-03-08T05:44:10;0.20;99.90
4453;DHT22;2239;48.152;11.584;2024-03-08T05:46:36;0.20;99.90
4453;DHT22;2239;48.152;11.584;2024-03-08T05:49:06;0.30;99.90
4453;DHT22;2239;48.152;11.584;2024-03-08T05:51:35;0.20;99.90
4453;DHT22;2239;48.152;11.584;2024-03-08T05:54:02;0.20;99.90
4453;DHT22;2239;48.152;11.584;2024-03-08T05:56:29;0.30;99.90
4453;DHT22;2239;48.152;11.584;2024-03-08T05:58:55;0.30;99.90
4453;DHT22;2239;48.152;11.584;2024-03-08T06:01:22;0.30;99.90
4453;DHT22;2239;48.152;11.584;2024-03-08T06:03:47;0.30;99.90
4453;DHT22;2239;48.152;11.584;2024-03-08T06:06:14;0.40;99.90
4453;DHT22;2239;48.152;11.584;2024-03-08T06:08:43;0.30;99.90
4453;DHT22;2239;48.152;11.584;2024-03-08T06:11:09;0.40;99.90
4453;DHT22;2239;48.152;11.584;2024-03-08T06:13:35;0.40;99.90
4453;DHT22;2239;48.152;11.584;2024-03-08T06:16:01;0.40;99.90
4453;DHT22;2239;48.152;11.584;2024-03-08T06:18:33;0.40;99.90
4453;DHT22;2239;48.152;11.584;2024-03-08T06:20:59;0.40;99.90
4453;DHT22;2239;48.152;11.584;2024-03-08T06:23:26;0.50;99.90
4453;DHT22;2239;48.152;11.584;2024-03-08T06:25:53;0.50;99.90
4453;DHT22;2239;48.152;11.584;2024-03-08T06:28:18;0.60;99.90
4453;DHT22;2239;48.152;11.584;2024-03-08T06:30:44;0.70;99.90
4453;DHT22;2239;48.152;11.584;2024-03-08T06:33:10;0.60;99.90
4453;DHT22;2239;48.152;11.584;2024-03-08T06:35:36;0.60;99.90
4453;DHT22;2239;48.152;11.584;2024-03-08T06:38:04;0.60;99.90
4453;DHT22;2239;48.152;11.584;2024-03-08T06:40:30;0.60;99.90
4453;DHT22;2239;48.152;11.584;2024-03-08T06:42:55;0.60;99.90
4453;DHT22;2239;48.152;11.584;2024-03-08T06:45:21;0.70;99.90
4453;DHT22;2239;48.152;11.584;2024-03-08T06:47:49;0.70;99.90
4453;DHT22;2239;48.152;11.584;2024-03-08T06:50:15;0.70;99.90
4453;DHT22;2239;48.152;11.584;2024-03-08T06:52:41;0.70;99.90
4453;DHT22;2239;48.152;11.584;2024-03-08T06:55:12;0.80;99.90
4453;DHT22;2239;48.152;11.584;2024-03-08T06:57:40;0.80;99.90
4453;DHT22;2239;48.152;11.584;2024-03-08T07:00:08;0.90;99.90
4453;DHT22;2239;48.152;11.584;2024-03-08T07:02:40;0.90;99.90
4453;DHT22;2239;48.152;11.584;2024-03-08T07:05:07;0.90;99.90
4453;DHT22;2239;48.152;11.584;2024-03-08T07:07:36;0.90;99.90
4453;DHT22;2239;48.152;11.584;2024-03-08T07:10:01;0.90;99.90
4453;DHT22;2239;48.152;11.584;2024-03-08T07:12:27;0.90;99.90
4453;DHT22;2239;48.152;11.584;2024-03-08T07:14:53;0.90;99.90
4453;DHT22;2239;48.152;11.584;2024-03-08T07:17:19;1.10;99.90
4453;DHT22;2239;48.152;11.584;2024-03-08T07:19:44;1.10;99.90
4453;DHT22;2239;48.152;11.584;2024-03-08T07:22:10;1.10;99.90
4453;DHT22;2239;48.152;11.584;2024-03-08T07:24:36;1.10;99.90
4453;DHT22;2239;48.152;11.584;2024-03-08T07:27:03;1.20;99.90
4453;DHT22;2239;48.152;11.584;2024-03-08T07:29:33;1.30;99.90
4453;DHT22;2239;48.152;11.584;2024-03-08T07:32:00;1.30;99.90
4453;DHT22;2239;48.152;11.584;2024-03-08T07:34:26;1.40;99.90
4453;DHT22;2239;48.152;11.584;2024-03-08T07:36:52;1.50;99.90
4453;DHT22;2239;48.152;11.584;2024-03-08T07:39:17;1.70;99.90
4453;DHT22;2239;48.152;11.584;2024-03-08T07:41:44;1.80;99.90
4453;DHT22;2239;48.152;11.584;2024-03-08T07:44:10;1.90;99.90
4453;DHT22;2239;48.152;11.584;2024-03-08T07:46:35;2.30;99.90
4453;DHT22;2239;48.152;11.584;2024-03-08T07:49:02;2.40;99.90
4453;DHT22;2239;48.152;11.584;2024-03-08T07:51:28;2.50;99.90
4453;DHT22;2239;48.152;11.584;2024-03-08T07:53:54;2.40;99.90
4453;DHT22;2239;48.152;11.584;2024-03-08T07:56:20;2.60;99.90
4453;DHT22;2239;48.152;11.584;2024-03-08T07:58:47;2.90;99.90
4453;DHT22;2239;48.152;11.584;2024-03-08T08:01:19;3.40;99.90
4453;DHT22;2239;48.152;11.584;2024-03-08T08:03:46;3.60;99.90
4453;DHT22;2239;48.152;11.584;2024-03-08T08:06:15;3.60;99.90
4453;DHT22;2239;48.152;11.584;2024-03-08T08:08:44;3.70;99.90
4453;DHT22;2239;48.152;11.584;2024-03-08T08:11:10;4.20;99.90
4453;DHT22;2239;48.152;11.584;2024-03-08T08:13:41;4.80;99.90
4453;DHT22;2239;48.152;11.584;2024-03-08T08:16:09;5.00;99.90
4453;DHT22;2239;48.152;11.584;2024-03-08T08:18:34;4.90;99.90
4453;DHT22;2239;48.152;11.584;2024-03-08T08:21:01;5.00;99.90
4453;DHT22;2239;48.152;11.584;2024-03-08T08:23:27;5.10;99.90
4453;DHT22;2239;48.152;11.584;2024-03-08T08:25:52;5.40;99.90
4453;DHT22;2239;48.152;11.584;2024-03-08T08:28:18;5.70;99.90
4453;DHT22;2239;48.152;11.584;2024-03-08T08:30:44;5.60;99.90
4453;DHT22;2239;48.152;11.584;2024-03-08T08:33:10;5.40;99.90
4453;DHT22;2239;48.152;11.584;2024-03-08T08:35:39;5.00;99.90
4453;DHT22;2239;48.152;11.584;2024-03-08T08:38:05;4.70;99.90
4453;DHT22;2239;48.152;11.584;2024-03-08T08:40:30;5.10;99.90
4453;DHT22;2239;48.152;11.584;2024-03-08T08:42:58;5.00;99.90
4453;DHT22;2239;48.152;11.584;2024-03-08T08:45:24;5.10;99.90
4453;DHT22;2239;48.152;11.584;2024-03-08T08:47:49;5.60;99.90
4453;DHT22;2239;48.152;11.584;2024-03-08T08:50:15;5.80;99.90
4453;DHT22;2239;48.152;11.584;2024-03-08T08:52:42;5.70;99.90
4453;DHT22;2239;48.152;11.584;2024-03-08T08:55:09;5.80;99.90
4453;DHT22;2239;48.152;11.584;2024-03-08T08:57:40;6.00;99.90
4453;DHT22;2239;48.152;11.584;2024-03-08T09:00:06;6.30;99.90
4453;DHT22;2239;48.152;11.584;2024-03-08T09:02:33;6.60;99.90
4453;DHT22;2239;48.152;11.584;2024-03-08T09:05:00;6.80;99.70
4453;DHT22;2239;48.152;11.584;2024-03-08T09:07:26;7.00;99.00
4453;DHT22;2239;48.152;11.584;2024-03-08T09:09:53;7.30;98.70
4453;DHT22;2239;48.152;11.584;2024-03-08T09:12:23;7.60;98.00
4453;DHT22;2239;48.152;11.584;2024-03-08T09:14:48;7.80;97.50
4453;DHT22;2239;48.152;11.584;2024-03-08T09:17:15;8.20;97.50
4453;DHT22;2239;48.152;11.584;2024-03-08T09:19:48;8.60;96.00
4453;DHT22;2239;48.152;11.584;2024-03-08T09:22:14;8.80;95.40
4453;DHT22;2239;48.152;11.584;2024-03-08T09:24:40;8.60;95.20
4453;DHT22;2239;48.152;11.584;2024-03-08T09:27:06;8.50;95.30
4453;DHT22;2239;48.152;11.584;2024-03-08T09:29:31;8.50;95.40
4453;DHT22;2239;48.152;11.584;2024-03-08T09:31:57;8.40;95.00
4453;DHT22;2239;48.152;11.584;2024-03-08T09:34:23;8.60;95.50
4453;DHT22;2239;48.152;11.584;2024-03-08T09:36:49;8.70;95.10
4453;DHT22;2239;48.152;11.584;2024-03-08T09:39:16;8.60;94.90
4453;DHT22;2239;48.152;11.584;2024-03-08T09:41:46;8.70;94.80
4453;DHT22;2239;48.152;11.584;2024-03-08T09:44:18;8.60;94.70
4453;DHT22;2239;48.152;11.584;2024-03-08T09:46:45;8.60;94.80
4453;DHT22;2239;48.152;11.584;2024-03-08T09:49:17;8.50;95.10
4453;DHT22;2239;48.152;11.584;2024-03-08T09:51:42;8.50;94.90
4453;DHT22;2239;48.152;11.584;2024-03-08T09:54:08;8.70;94.70
4453;DHT22;2239;48.152;11.584;2024-03-08T09:56:37;8.70;95.00
4453;DHT22;2239;48.152;11.584;2024-03-08T09:59:05;8.80;94.60
4453;DHT22;2239;48.152;11.584;2024-03-08T10:01:31;8.60;94.70
4453;DHT22;2239;48.152;11.584;2024-03-08T10:03:57;8.70;95.20
4453;DHT22;2239;48.152;11.584;2024-03-08T10:06:23;8.90;94.70
4453;DHT22;2239;48.152;11.584;2024-03-08T10:08:50;9.20;94.20
4453;DHT22;2239;48.152;11.584;2024-03-08T10:11:19;9.60;93.80
4453;DHT22;2239;48.152;11.584;2024-03-08T10:13:46;9.50;93.20
4453;DHT22;2239;48.152;11.584;2024-03-08T10:16:13;9.80;93.80
4453;DHT22;2239;48.152;11.584;2024-03-08T10:18:38;9.90;93.10
4453;DHT22;2239;48.152;11.584;2024-03-08T10:21:08;9.60;92.50
4453;DHT22;2239;48.152;11.584;2024-03-08T10:23:36;9.50;93.50
4453;DHT22;2239;48.152;11.584;2024-03-08T10:26:17;9.40;92.30
4453;DHT22;2239;48.152;11.584;2024-03-08T10:28:49;9.60;93.00
4453;DHT22;2239;48.152;11.584;2024-03-08T10:31:18;9.20;92.20
4453;DHT22;2239;48.152;11.584;2024-03-08T10:33:45;8.80;93.10
4453;DHT22;2239;48.152;11.584;2024-03-08T10:36:13;8.60;93.20
4453;DHT22;2239;48.152;11.584;2024-03-08T10:38:40;8.40;93.80
4453;DHT22;2239;48.152;11.584;2024-03-08T10:41:08;8.60;95.40
4453;DHT22;2239;48.152;11.584;2024-03-08T10:46:47;10.40;92.40
4453;DHT22;2239;48.152;11.584;2024-03-08T10:49:22;10.70;91.40
4453;DHT22;2239;48.152;11.584;2024-03-08T10:51:50;10.60;91.20
4453;DHT22;2239;48.152;11.584;2024-03-08T10:54:19;10.60;90.10
4453;DHT22;2239;48.152;11.584;2024-03-08T10:56:48;10.50;90.30
4453;DHT22;2239;48.152;11.584;2024-03-08T10:59:14;10.60;90.70
4453;DHT22;2239;48.152;11.584;2024-03-08T11:01:40;10.60;89.40
4453;DHT22;2239;48.152;11.584;2024-03-08T11:04:06;10.40;89.20
4453;DHT22;2239;48.152;11.584;2024-03-08T11:09:30;10.40;90.20
4453;DHT22;2239;48.152;11.584;2024-03-08T11:12:27;10.70;89.80
4453;DHT22;2239;48.152;11.584;2024-03-08T11:14:56;10.50;88.80
4453;DHT22;2239;48.152;11.584;2024-03-08T11:19:48;10.30;90.10
4453;DHT22;2239;48.152;11.584;2024-03-08T11:22:28;10.30;90.50
4453;DHT22;2239;48.152;11.584;2024-03-08T11:25:02;10.50;89.70
4453;DHT22;2239;48.152;11.584;2024-03-08T11:27:31;10.50;88.10
4453;DHT22;2239;48.152;11.584;2024-03-08T11:30:05;10.50;88.70
4453;DHT22;2239;48.152;11.584;2024-03-08T11:32:38;10.70;89.60
4453;DHT22;2239;48.152;11.584;2024-03-08T11:35:08;10.90;90.20
4453;DHT22;2239;48.152;11.584;2024-03-08T11:37:44;11.10;90.00
4453;DHT22;2239;48.152;11.584;2024-03-08T11:40:25;11.10;90.10
4453;DHT22;2239;48.152;11.584;2024-03-08T11:42:51;11.20;89.60
4453;DHT22;2239;48.152;11.584;2024-03-08T11:45:18;11.30;89.50
4453;DHT22;2239;48.152;11.584;2024-03-08T11:47:46;11.40;88.30
4453;DHT22;2239;48.152;11.584;2024-03-08T11:50:15;11.30;88.40
4453;DHT22;2239;48.152;11.584;2024-03-08T11:52:42;11.40;88.20
4453;DHT22;2239;48.152;11.584;2024-03-08T11:55:08;11.30;87.50
4453;DHT22;2239;48.152;11.584;2024-03-08T11:57:34;11.30;87.10
4453;DHT22;2239;48.152;11.584;2024-03-08T12:00:00;10.90;87.90
4453;DHT22;2239;48.152;11.584;2024-03-08T12:02:33;10.80;89.40
4453;DHT22;2239;48.152;11.584;2024-03-08T12:05:04;11.00;88.20
4453;DHT22;2239;48.152;11.584;2024-03-08T12:07:31;10.90;89.20
4453;DHT22;2239;48.152;11.584;2024-03-08T12:10:20;11.00;88.60
4453;DHT22;2239;48.152;11.584;2024-03-08T12:12:52;11.20;88.20
4453;DHT22;2239;48.152;11.584;2024-03-08T12:15:20;11.10;88.00
4453;DHT22;2239;48.152;11.584;2024-03-08T12:17:49;11.10;88.70
4453;DHT22;2239;48.152;11.584;2024-03-08T12:22:47;11.70;88.70
4453;DHT22;2239;48.152;11.584;2024-03-08T12:25:14;11.70;85.80
4453;DHT22;2239;48.152;11.584;2024-03-08T12:27:41;11.60;86.20
4453;DHT22;2239;48.152;11.584;2024-03-08T12:30:20;11.70;86.60
4453;DHT22;2239;48.152;11.584;2024-03-08T12:32:52;11.60;87.30
4453;DHT22;2239;48.152;11.584;2024-03-08T12:35:23;11.90;86.60
4453;DHT22;2239;48.152;11.584;2024-03-08T12:37:50;11.70;85.30
4453;DHT22;2239;48.152;11.584;2024-03-08T12:40:25;11.60;86.60
4453;DHT22;2239;48.152;11.584;2024-03-08T12:42:52;11.60;87.00
4453;DHT22;2239;48.152;11.584;2024-03-08T12:45:17;12.00;86.80
4453;DHT22;2239;48.152;11.584;2024-03-08T12:47:43;11.80;84.30
4453;DHT22;2239;48.152;11.584;2024-03-08T12:50:10;11.70;84.90
4453;DHT22;2239;48.152;11.584;2024-03-08T12:52:36;12.00;89.50
4453;DHT22;2239;48.152;11.584;2024-03-08T12:55:02;12.70;85.30
4453;DHT22;2239;48.152;11.584;2024-03-08T12:57:28;12.70;82.90
4453;DHT22;2239;48.152;11.584;2024-03-08T12:59:54;12.60;81.30
4453;DHT22;2239;48.152;11.584;2024-03-08T13:02:20;12.20;83.60
4453;DHT22;2239;48.152;11.584;2024-03-08T13:04:46;12.20;84.30
4453;DHT22;2239;48.152;11.584;2024-03-08T13:07:21;12.10;82.60
4453;DHT22;2239;48.152;11.584;2024-03-08T13:09:47;12.00;83.00
4453;DHT22;2239;48.152;11.584;2024-03-08T13:12:12;11.80;82.50
4453;DHT22;2239;48.152;11.584;2024-03-08T13:14:40;11.60;82.90
4453;DHT22;2239;48.152;11.584;2024-03-08T13:17:06;11.80;83.70
4453;DHT22;2239;48.152;11.584;2024-03-08T13:19:36;12.00;82.10
4453;DHT22;2239;48.152;11.584;2024-03-08T13:22:04;12.30;82.40
4453;DHT22;2239;48.152;11.584;2024-03-08T13:24:32;12.30;80.00
4453;DHT22;2239;48.152;11.584;2024-03-08T13:27:01;12.20;81.10
4453;DHT22;2239;48.152;11.584;2024-03-08T13:29:27;12.70;81.70
4453;DHT22;2239;48.152;11.584;2024-03-08T13:31:53;12.80;78.60
4453;DHT22;2239;48.152;11.584;2024-03-08T13:34:22;12.60;81.30
4453;DHT22;2239;48.152;11.584;2024-03-08T13:36:53;12.40;80.10
4453;DHT22;2239;48.152;11.584;2024-03-08T13:39:25;12.30;79.70
4453;DHT22;2239;48.152;11.584;2024-03-08T13:41:51;11.90;80.00
4453;DHT22;2239;48.152;11.584;2024-03-08T13:44:17;11.80;81.00
4453;DHT22;2239;48.152;11.584;2024-03-08T13:46:43;11.90;81.40
4453;DHT22;2239;48.152;11.584;2024-03-08T13:49:08;12.00;79.60
4453;DHT22;2239;48.152;11.584;2024-03-08T13:51:36;12.00;79.70
4453;DHT22;2239;48.152;11.584;2024-03-08T13:54:02;12.00;78.90
4453;DHT22;2239;48.152;11.584;2024-03-08T13:56:28;11.80;79.00
4453;DHT22;2239;48.152;11.584;2024-03-08T13:58:57;11.80;79.40
4453;DHT22;2239;48.152;11.584;2024-03-08T14:01:23;11.60;79.30
4453;DHT22;2239;48.152;11.584;2024-03-08T14:03:49;11.80;78.60
4453;DHT22;2239;48.152;11.584;2024-03-08T14:06:14;11.80;78.10
4453;DHT22;2239;48.152;11.584;2024-03-08T14:08:40;11.80;78.50
4453;DHT22;2239;48.152;11.584;2024-03-08T14:11:06;11.60;78.10
4453;DHT22;2239;48.152;11.584;2024-03-08T14:13:42;11.50;78.60
4453;DHT22;2239;48.152;11.584;2024-03-08T14:16:12;11.30;80.20
4453;DHT22;2239;48.152;11.584;2024-03-08T14:18:38;11.40;79.20
4453;DHT22;2239;48.152;11.584;2024-03-08T14:21:07;11.40;79.00
4453;DHT22;2239;48.152;11.584;2024-03-08T14:23:34;11.50;78.80
4453;DHT22;2239;48.152;11.584;2024-03-08T14:25:59;11.50;79.30
4453;DHT22;2239;48.152;11.584;2024-03-08T14:28:25;11.70;80.10
4453;DHT22;2239;48.152;11.584;2024-03-08T14:30:54;12.00;78.60
4453;DHT22;2239;48.152;11.584;2024-03-08T14:33:20;11.70;78.40
4453;DHT22;2239;48.152;11.584;2024-03-08T14:35:45;11.50;79.00
4453;DHT22;2239;48.152;11.584;2024-03-08T14:38:15;11.50;79.10
4453;DHT22;2239;48.152;11.584;2024-03-08T14:40:42;11.30;79.00
4453;DHT22;2239;48.152;11.584;2024-03-08T14:43:12;11.20;78.90
4453;DHT22;2239;48.152;11.584;2024-03-08T14:45:38;11.00;78.80
4453;DHT22;2239;48.152;11.584;2024-03-08T14:48:05;10.90;79.20
4453;DHT22;2239;48.152;11.584;2024-03-08T14:50:30;10.80;80.00
4453;DHT22;2239;48.152;11.584;2024-03-08T14:52:58;11.00;81.20
4453;DHT22;2239;48.152;11.584;2024-03-08T14:55:25;11.10;80.50
4453;DHT22;2239;48.152;11.584;2024-03-08T14:57:52;11.30;80.60
4453;DHT22;2239;48.152;11.584;2024-03-08T15:00:20;11.40;80.90
4453;DHT22;2239;48.152;11.584;2024-03-08T15:02:56;11.50;80.30
4453;DHT22;2239;48.152;11.584;2024-03-08T15:05:25;11.40;78.40
4453;DHT22;2239;48.152;11.584;2024-03-08T15:07:54;11.20;78.40
4453;DHT22;2239;48.152;11.584;2024-03-08T15:10:26;11.00;79.10
4453;DHT22;2239;48.152;11.584;2024-03-08T15:12:54;10.90;82.90
4453;DHT22;2239;48.152;11.584;2024-03-08T15:15:21;11.10;80.90
4453;DHT22;2239;48.152;11.584;2024-03-08T15:17:48;11.40;81.80
4453;DHT22;2239;48.152;11.584;2024-03-08T15:20:15;11.30;80.00
4453;DHT22;2239;48.152;11.584;2024-03-08T15:22:49;11.10;79.60
4453;DHT22;2239;48.152;11.584;2024-03-08T15:25:15;10.90;79.70
4453;DHT22;2239;48.152;11.584;2024-03-08T15:27:54;10.70;79.60
4453;DHT22;2239;48.152;11.584;2024-03-08T15:30:21;10.70;81.90
4453;DHT22;2239;48.152;11.584;2024-03-08T15:32:55;10.80;80.50
4453;DHT22;2239;48.152;11.584;2024-03-08T15:35:25;10.70;81.80
4453;DHT22;2239;48.152;11.584;2024-03-08T15:37:52;10.80;81.00
4453;DHT22;2239;48.152;11.584;2024-03-08T15:40:23;11.00;80.60
4453;DHT22;2239;48.152;11.584;2024-03-08T15:45:20;10.60;80.20
4453;DHT22;2239;48.152;11.584;2024-03-08T15:47:46;10.50;81.30
4453;DHT22;2239;48.152;11.584;2024-03-08T15:50:12;10.60;81.80
4453;DHT22;2239;48.152;11.584;2024-03-08T15:52:39;10.50;81.70
4453;DHT22;2239;48.152;11.584;2024-03-08T15:55:06;10.30;81.40
4453;DHT22;2239;48.152;11.584;2024-03-08T15:57:32;10.00;81.80
4453;DHT22;2239;48.152;11.584;2024-03-08T15:59:58;9.90;83.70
4453;DHT22;2239;48.152;11.584;2024-03-08T16:02:26;9.80;84.30
4453;DHT22;2239;48.152;11.584;2024-03-08T16:04:54;9.80;84.80
4453;DHT22;2239;48.152;11.584;2024-03-08T16:07:19;9.70;85.30
4453;DHT22;2239;48.152;11.584;2024-03-08T16:09:45;9.60;85.30
4453;DHT22;2239;48.152;11.584;2024-03-08T16:12:11;9.50;86.00